Terminal Aerodrome Forecast
Issued by NWS

Home | Current Version | Previous Version | Text Only | Print | Product List | Glossary On
Versions: 1 2 3 4 5 6 7 8 9 10 11 12 13 14 15 16 17 18 19 20 21 22 23 24 25 26
702
FTAK31 PAJN 161733
TAFAYA
TAF
PAYA 161733Z 1618/1718 09010KT 4SM -RA BR BKN008 OVC015
     FM162000 12015G25KT 4SM RA BR OVC015 WS020/15040KT
     FM162200 24020G30KT 3SM SHRA BR OVC015 WS020/25040KT
     FM170300 24014G22KT 6SM -SHRA BR OVC025
     FM170900 22007KT P6SM VCSH OVC025
      AMD LTD TO CLD VIS AND WIND 1701/1709=

USA.gov is the U.S. government's official web portal to all federal, state and local government web resources and services.